createdAt,value
2022-12-15T00:01:05.060Z,17.50
2022-12-15T00:03:54.098Z,19.30
2022-12-15T00:06:42.988Z,20.10
2022-12-15T00:09:31.308Z,20.20
2022-12-15T00:12:20.108Z,20.40
2022-12-15T00:15:09.189Z,19.60
2022-12-15T00:17:57.233Z,19.20
2022-12-15T00:20:45.767Z,19.30
2022-12-15T00:23:34.432Z,20.10
2022-12-15T00:26:22.861Z,20.50
2022-12-15T00:29:11.009Z,18.00
2022-12-15T00:31:59.442Z,19.10
2022-12-15T00:34:48.110Z,16.50
2022-12-15T00:37:36.802Z,18.40
2022-12-15T00:40:08.663Z,20.80
2022-12-15T00:42:39.601Z,20.50
2022-12-15T00:45:11.479Z,22.00
2022-12-15T00:47:42.554Z,19.20
2022-12-15T00:50:30.901Z,22.10
2022-12-15T00:53:19.558Z,21.00
2022-12-15T00:56:08.120Z,20.10
2022-12-15T00:58:56.464Z,21.30
2022-12-15T01:01:45.027Z,20.10
2022-12-15T01:04:38.373Z,22.40
2022-12-15T01:07:26.414Z,21.20
2022-12-15T01:10:14.858Z,20.60
2022-12-15T01:13:03.930Z,22.80
2022-12-15T01:15:57.047Z,21.30
2022-12-15T01:18:49.426Z,23.40
2022-12-15T01:21:24.316Z,26.50
2022-12-15T01:23:56.138Z,25.00
2022-12-15T01:26:26.947Z,26.50
2022-12-15T01:28:57.664Z,25.40
2022-12-15T01:31:28.369Z,26.60
2022-12-15T01:33:59.345Z,27.90
2022-12-15T01:36:30.129Z,28.00
2022-12-15T01:39:00.750Z,25.20
2022-12-15T01:41:31.893Z,26.00
2022-12-15T01:44:16.099Z,27.40
2022-12-15T01:46:47.757Z,29.30
2022-12-15T01:49:22.025Z,33.00
2022-12-15T01:51:53.710Z,30.00
2022-12-15T01:54:26.506Z,30.60
2022-12-15T01:56:59.450Z,29.20
2022-12-15T01:59:31.815Z,29.80
2022-12-15T02:02:03.317Z,30.30
2022-12-15T02:04:34.999Z,31.20
2022-12-15T02:07:05.904Z,32.10
2022-12-15T02:09:36.845Z,31.70
2022-12-15T02:12:11.007Z,30.70
2022-12-15T02:14:54.381Z,34.20
2022-12-15T02:20:11.519Z,33.30
2022-12-15T02:22:49.060Z,37.70
2022-12-15T02:25:32.849Z,40.00
2022-12-15T02:28:05.905Z,40.00
2022-12-15T02:30:42.736Z,40.10
2022-12-15T02:33:16.412Z,38.60
2022-12-15T02:35:51.616Z,36.20
2022-12-15T02:38:31.407Z,40.30
2022-12-15T02:41:03.003Z,37.50
2022-12-15T02:43:35.649Z,37.40
2022-12-15T02:46:12.467Z,41.40
2022-12-15T02:48:50.245Z,37.00
2022-12-15T02:51:25.981Z,41.00
2022-12-15T02:54:08.732Z,39.70
2022-12-15T02:56:44.019Z,40.20
2022-12-15T02:59:17.519Z,39.70
2022-12-15T03:04:21.607Z,42.80
2022-12-15T03:07:00.832Z,43.10
2022-12-15T03:09:33.347Z,46.00
2022-12-15T03:12:04.085Z,48.40
2022-12-15T03:14:35.050Z,43.40
2022-12-15T03:17:07.809Z,45.30
2022-12-15T03:19:38.874Z,43.90
2022-12-15T03:22:09.842Z,42.60
2022-12-15T03:24:40.753Z,49.20
2022-12-15T03:27:11.293Z,45.30
2022-12-15T03:29:42.276Z,48.50
2022-12-15T03:32:13.042Z,46.60
2022-12-15T03:34:44.270Z,47.90
2022-12-15T03:37:14.805Z,44.90
2022-12-15T03:39:46.216Z,46.70
2022-12-15T03:42:36.831Z,46.70
2022-12-15T03:45:08.635Z,49.30
2022-12-15T03:47:41.475Z,45.70
2022-12-15T03:50:12.945Z,45.60
2022-12-15T03:52:43.562Z,50.70
2022-12-15T03:55:14.493Z,49.20
2022-12-15T03:57:45.082Z,53.70
2022-12-15T04:00:16.838Z,46.50
2022-12-15T04:02:50.387Z,46.10
2022-12-15T04:05:23.157Z,49.40
2022-12-15T04:07:53.789Z,49.90
2022-12-15T04:10:30.181Z,49.80
2022-12-15T04:13:04.673Z,57.60
2022-12-15T04:15:36.246Z,49.00
2022-12-15T04:18:07.722Z,49.50
2022-12-15T04:20:39.228Z,50.60
2022-12-15T04:23:09.872Z,52.30
2022-12-15T04:25:58.436Z,50.10
2022-12-15T04:28:46.659Z,51.80
2022-12-15T04:31:36.992Z,52.80
2022-12-15T04:34:26.288Z,50.50
2022-12-15T04:37:14.665Z,51.30
2022-12-15T04:40:04.849Z,50.70
2022-12-15T04:42:56.579Z,60.60
2022-12-15T04:45:44.890Z,55.20
2022-12-15T04:48:32.973Z,53.60
2022-12-15T04:51:23.736Z,55.10
2022-12-15T04:54:12.687Z,55.20
2022-12-15T04:57:01.385Z,54.90
2022-12-15T04:59:49.731Z,53.70
2022-12-15T05:02:38.420Z,55.90
2022-12-15T05:05:27.196Z,56.80
2022-12-15T05:08:17.884Z,55.50
2022-12-15T05:11:06.383Z,53.10
2022-12-15T05:13:55.791Z,55.00
2022-12-15T05:16:44.163Z,56.00
2022-12-15T05:19:32.349Z,58.20
2022-12-15T05:22:21.301Z,54.10
2022-12-15T05:25:09.608Z,54.90
2022-12-15T05:27:57.961Z,56.50
2022-12-15T05:30:46.204Z,60.70
2022-12-15T05:33:17.313Z,56.60
2022-12-15T05:35:48.214Z,57.60
2022-12-15T05:38:19.575Z,56.20
2022-12-15T05:40:50.655Z,53.50
2022-12-15T05:43:26.190Z,60.70
2022-12-15T05:45:57.432Z,57.20
2022-12-15T05:48:29.748Z,60.50
2022-12-15T05:51:03.834Z,60.40
2022-12-15T05:53:35.027Z,60.70
2022-12-15T05:56:06.376Z,57.10
2022-12-15T05:58:41.526Z,63.10
2022-12-15T06:01:17.255Z,59.00
2022-12-15T06:03:48.101Z,60.90
2022-12-15T06:06:19.243Z,56.50
2022-12-15T06:08:50.384Z,63.30
2022-12-15T06:11:22.755Z,64.20
2022-12-15T06:13:53.842Z,55.60
2022-12-15T06:16:25.441Z,56.40
2022-12-15T06:18:57.507Z,60.00
2022-12-15T06:21:29.519Z,57.90
2022-12-15T06:24:00.866Z,62.90
2022-12-15T06:26:32.999Z,59.50
2022-12-15T06:29:04.547Z,61.20
2022-12-15T06:31:36.009Z,65.80
2022-12-15T06:34:07.666Z,62.60
2022-12-15T06:36:39.599Z,61.70
2022-12-15T06:39:12.763Z,64.80
2022-12-15T06:41:43.745Z,60.90
2022-12-15T06:44:15.939Z,61.20
2022-12-15T06:46:46.990Z,65.90
2022-12-15T06:49:17.696Z,64.30
2022-12-15T06:51:49.882Z,62.40
2022-12-15T06:54:21.710Z,63.60
2022-12-15T06:56:53.563Z,62.10
2022-12-15T06:59:24.913Z,69.10
2022-12-15T07:01:56.028Z,62.90
2022-12-15T07:04:27.295Z,64.50
2022-12-15T07:06:58.173Z,60.30
2022-12-15T07:09:29.072Z,64.10
2022-12-15T07:11:59.874Z,65.00
2022-12-15T07:14:30.835Z,61.00
2022-12-15T07:17:01.578Z,60.60
2022-12-15T07:19:32.362Z,62.10
2022-12-15T07:22:03.010Z,60.00
2022-12-15T07:24:33.813Z,58.80
2022-12-15T07:27:04.844Z,58.70
2022-12-15T07:29:37.334Z,58.10
2022-12-15T07:32:08.241Z,62.10
2022-12-15T07:34:39.263Z,59.30
2022-12-15T07:37:10.206Z,59.60
2022-12-15T07:39:41.141Z,57.90
2022-12-15T07:42:11.877Z,60.20
2022-12-15T07:44:42.848Z,57.00
2022-12-15T07:47:13.394Z,58.70
2022-12-15T07:49:44.842Z,59.30
2022-12-15T07:52:15.442Z,57.20
2022-12-15T07:54:46.543Z,57.30
2022-12-15T07:57:17.984Z,58.10
2022-12-15T07:59:49.163Z,60.80
2022-12-15T08:02:20.324Z,60.40
2022-12-15T08:04:53.486Z,56.20
2022-12-15T08:07:24.270Z,56.50
2022-12-15T08:09:55.481Z,57.20
2022-12-15T08:12:26.147Z,54.40
2022-12-15T08:14:58.095Z,52.70
2022-12-15T08:17:28.799Z,56.10
2022-12-15T08:20:01.417Z,56.10
2022-12-15T08:22:34.289Z,54.20
2022-12-15T08:25:05.495Z,50.60
2022-12-15T08:27:36.232Z,55.40
2022-12-15T08:30:08.076Z,51.60
2022-12-15T08:32:39.711Z,50.80
2022-12-15T08:35:31.724Z,50.50
2022-12-15T08:38:05.836Z,49.90
2022-12-15T08:40:36.926Z,51.40
2022-12-15T08:43:07.711Z,49.20
2022-12-15T08:45:41.842Z,50.00
2022-12-15T08:48:12.459Z,48.90
2022-12-15T08:50:45.761Z,48.80
2022-12-15T08:53:32.308Z,46.80
2022-12-15T08:56:07.049Z,45.00
2022-12-15T08:58:38.276Z,48.90
2022-12-15T09:01:10.555Z,44.20
2022-12-15T09:03:41.778Z,44.80
2022-12-15T09:06:14.429Z,45.20
2022-12-15T09:08:45.303Z,39.60
2022-12-15T09:11:21.116Z,42.50
2022-12-15T09:13:51.868Z,43.20
2022-12-15T09:16:22.995Z,40.80
2022-12-15T09:18:54.702Z,38.70
2022-12-15T09:21:26.870Z,36.00
2022-12-15T09:24:00.937Z,35.70
2022-12-15T09:26:32.642Z,34.20
2022-12-15T09:29:03.715Z,34.60
2022-12-15T09:31:35.014Z,33.10
2022-12-15T09:34:05.950Z,34.30
2022-12-15T09:36:37.251Z,31.20
2022-12-15T09:39:09.174Z,35.70
2022-12-15T09:41:40.565Z,31.80
2022-12-15T09:44:14.171Z,31.40
2022-12-15T09:46:52.307Z,33.50
2022-12-15T09:49:39.863Z,35.80
2022-12-15T09:52:13.236Z,35.30
2022-12-15T09:54:44.762Z,36.60
2022-12-15T09:57:20.406Z,35.20
2022-12-15T10:00:03.800Z,34.10
2022-12-15T10:03:01.850Z,38.40
2022-12-15T10:06:07.225Z,39.70
2022-12-15T10:08:33.809Z,35.70
2022-12-15T10:11:06.189Z,34.80
2022-12-15T10:13:41.150Z,36.20
2022-12-15T10:16:18.735Z,32.30
2022-12-15T10:18:59.229Z,35.30
2022-12-15T10:21:32.715Z,34.30
2022-12-15T10:24:12.145Z,32.90
2022-12-15T10:26:43.905Z,34.70
2022-12-15T10:29:21.613Z,31.00
2022-12-15T10:31:54.963Z,33.60
2022-12-15T10:34:27.519Z,32.90
2022-12-15T10:36:59.402Z,33.10
2022-12-15T10:39:39.548Z,33.30
2022-12-15T10:42:14.651Z,32.30
2022-12-15T10:44:50.552Z,32.10
2022-12-15T10:47:23.221Z,33.60
2022-12-15T10:49:54.629Z,34.50
2022-12-15T10:52:28.273Z,33.50
2022-12-15T10:54:59.100Z,32.30
2022-12-15T10:57:31.894Z,32.00
2022-12-15T11:00:22.868Z,29.70
2022-12-15T11:02:53.714Z,32.70
2022-12-15T11:05:25.913Z,32.10
2022-12-15T11:07:57.264Z,32.00
2022-12-15T11:10:49.929Z,35.00
2022-12-15T11:13:21.540Z,31.40
2022-12-15T11:15:55.000Z,32.20
2022-12-15T11:18:34.146Z,34.40
2022-12-15T11:21:07.355Z,33.10
2022-12-15T11:23:48.755Z,31.90
2022-12-15T11:26:24.334Z,32.70
2022-12-15T11:28:57.843Z,30.90
2022-12-15T11:31:34.563Z,30.90
2022-12-15T11:34:05.354Z,32.50
2022-12-15T11:36:46.017Z,31.50
2022-12-15T11:39:23.978Z,33.70
2022-12-15T11:41:59.126Z,30.40
2022-12-15T11:44:37.713Z,34.90
2022-12-15T11:47:13.364Z,28.40
2022-12-15T11:49:51.435Z,32.70
2022-12-15T11:52:32.801Z,29.90
2022-12-15T11:55:08.703Z,32.70
2022-12-15T11:57:50.483Z,33.30
2022-12-15T12:00:21.994Z,32.10
2022-12-15T12:02:58.967Z,33.00
2022-12-15T12:05:44.137Z,34.70
2022-12-15T12:08:32.778Z,33.20
2022-12-15T12:11:07.748Z,39.30
2022-12-15T12:13:40.273Z,40.20
2022-12-15T12:16:16.130Z,35.10
2022-12-15T12:18:50.424Z,36.00
2022-12-15T12:21:24.342Z,34.00
2022-12-15T12:23:57.223Z,37.80
2022-12-15T12:26:34.124Z,35.00
2022-12-15T12:29:07.831Z,37.20
2022-12-15T12:31:42.636Z,33.80
2022-12-15T12:34:15.369Z,39.60
2022-12-15T12:36:48.946Z,37.30
2022-12-15T12:39:21.633Z,36.10
2022-12-15T12:41:55.720Z,33.10
2022-12-15T12:44:31.072Z,32.60
2022-12-15T12:47:08.772Z,34.50
2022-12-15T12:49:40.515Z,41.40
2022-12-15T12:52:18.280Z,34.60
2022-12-15T12:54:57.128Z,37.40
2022-12-15T12:57:36.395Z,36.00
2022-12-15T13:00:14.881Z,34.30
2022-12-15T13:03:12.507Z,37.90
2022-12-15T13:05:44.298Z,36.40
2022-12-15T13:08:29.158Z,36.50
2022-12-15T13:11:20.300Z,35.20
2022-12-15T13:13:53.192Z,40.40
2022-12-15T13:16:26.372Z,39.20
2022-12-15T13:18:58.726Z,37.50
2022-12-15T13:21:50.154Z,36.80
2022-12-15T13:24:27.624Z,37.60
2022-12-15T13:27:06.339Z,35.80
2022-12-15T13:29:38.086Z,38.10
2022-12-15T13:32:26.197Z,41.30
2022-12-15T13:34:57.815Z,38.90
2022-12-15T13:37:41.823Z,34.50
2022-12-15T13:40:26.043Z,38.90
2022-12-15T13:42:59.736Z,36.10
2022-12-15T13:45:38.310Z,38.50
2022-12-15T13:48:14.619Z,40.70
2022-12-15T13:50:51.233Z,39.30
2022-12-15T13:53:25.357Z,38.60
2022-12-15T13:58:27.031Z,35.90
2022-12-15T14:00:59.037Z,35.90
2022-12-15T14:03:30.810Z,37.10
2022-12-15T14:06:02.023Z,37.20
2022-12-15T14:08:32.964Z,39.30
2022-12-15T14:11:22.417Z,41.20
2022-12-15T14:14:00.516Z,41.50
2022-12-15T14:16:35.972Z,46.60
2022-12-15T14:19:14.147Z,43.30
2022-12-15T14:21:51.607Z,41.50
2022-12-15T14:24:42.256Z,42.70
2022-12-15T14:27:22.660Z,39.30
2022-12-15T14:30:09.593Z,45.10
2022-12-15T14:32:41.156Z,47.30
2022-12-15T14:35:15.170Z,43.10
2022-12-15T14:37:46.208Z,41.70
2022-12-15T14:40:22.389Z,43.70
2022-12-15T14:42:56.428Z,39.50
2022-12-15T14:45:28.682Z,43.90
2022-12-15T14:48:30.983Z,46.30
2022-12-15T14:50:52.139Z,46.60
2022-12-15T14:53:23.632Z,45.10
2022-12-15T14:55:54.950Z,41.40
2022-12-15T14:58:32.649Z,45.70
2022-12-15T15:01:07.381Z,47.10
2022-12-15T15:03:39.743Z,44.50
2022-12-15T15:06:19.329Z,44.40
2022-12-15T15:08:51.024Z,48.20
2022-12-15T15:11:29.590Z,45.90
2022-12-15T15:14:01.967Z,45.70
2022-12-15T15:16:33.178Z,42.40
2022-12-15T15:19:04.968Z,43.10
2022-12-15T15:21:37.861Z,47.00
2022-12-15T15:24:22.341Z,47.80
2022-12-15T15:26:53.193Z,44.30
2022-12-15T15:29:38.034Z,42.90
2022-12-15T15:32:16.065Z,46.30
2022-12-15T15:34:48.016Z,40.30
2022-12-15T15:37:20.085Z,41.10
2022-12-15T15:39:51.378Z,42.90
2022-12-15T15:42:25.463Z,46.70
2022-12-15T15:45:00.519Z,44.00
2022-12-15T15:47:31.576Z,47.10
2022-12-15T15:50:02.689Z,39.50
2022-12-15T15:52:34.567Z,35.50
2022-12-15T15:55:05.720Z,39.60
2022-12-15T15:57:36.587Z,36.10
2022-12-15T16:00:17.121Z,39.40
2022-12-15T16:02:48.023Z,41.90
2022-12-15T16:05:19.290Z,42.60
2022-12-15T16:07:50.792Z,40.90
2022-12-15T16:10:22.193Z,43.70
2022-12-15T16:12:55.025Z,44.20
2022-12-15T16:15:27.781Z,40.40
2022-12-15T16:18:02.460Z,37.90
2022-12-15T16:20:34.229Z,37.40
2022-12-15T16:23:06.568Z,39.40
2022-12-15T16:25:48.412Z,38.90
2022-12-15T16:28:22.715Z,39.80
2022-12-15T16:30:54.234Z,37.60
2022-12-15T16:33:25.558Z,37.60
2022-12-15T16:35:56.517Z,35.00
2022-12-15T16:38:29.048Z,36.30
2022-12-15T16:41:00.742Z,39.20
2022-12-15T16:43:36.645Z,40.80
2022-12-15T16:46:12.785Z,40.60
2022-12-15T16:48:43.924Z,40.20
2022-12-15T16:51:27.940Z,38.70
2022-12-15T16:53:59.148Z,39.40
2022-12-15T16:56:29.785Z,40.10
2022-12-15T17:09:23.502Z,39.10
2022-12-15T17:11:54.709Z,35.20
2022-12-15T17:14:25.419Z,36.80
2022-12-15T17:16:56.187Z,38.50
2022-12-15T17:19:26.983Z,42.20
2022-12-15T17:21:58.338Z,38.20
2022-12-15T17:24:29.456Z,35.20
2022-12-15T17:27:00.776Z,39.10
2022-12-15T17:29:32.072Z,38.70
2022-12-15T17:32:02.757Z,38.10
2022-12-15T17:34:34.886Z,38.10
2022-12-15T17:37:07.767Z,36.40
2022-12-15T17:39:38.444Z,40.30
2022-12-15T17:42:13.349Z,41.40
2022-12-15T17:44:46.807Z,39.80
2022-12-15T17:47:17.853Z,43.80
2022-12-15T17:49:48.631Z,37.20
2022-12-15T17:52:23.442Z,43.70
2022-12-15T17:54:54.720Z,47.10
2022-12-15T17:57:25.711Z,43.50
2022-12-15T17:59:56.446Z,44.80
2022-12-15T18:02:27.368Z,43.90
2022-12-15T18:04:59.128Z,45.90
2022-12-15T18:07:29.584Z,47.60
2022-12-15T18:10:00.581Z,45.50
2022-12-15T18:12:31.220Z,43.60
2022-12-15T18:15:02.052Z,43.40
2022-12-15T18:17:32.793Z,46.80
2022-12-15T18:20:04.893Z,48.10
2022-12-15T18:22:35.538Z,47.60
2022-12-15T18:25:08.653Z,49.50
2022-12-15T18:27:39.774Z,47.30
2022-12-15T18:30:15.866Z,47.70
2022-12-15T18:32:47.504Z,43.90
2022-12-15T18:35:20.189Z,41.40
2022-12-15T18:37:54.740Z,43.50
2022-12-15T18:40:28.345Z,47.00
2022-12-15T18:45:28.546Z,44.70
2022-12-15T18:47:59.717Z,44.20
2022-12-15T18:50:30.690Z,46.80
2022-12-15T18:53:02.965Z,45.90
2022-12-15T18:55:34.471Z,47.20
2022-12-15T18:58:05.477Z,49.10
2022-12-15T19:00:37.210Z,49.10
2022-12-15T19:03:08.079Z,52.70
2022-12-15T19:05:40.121Z,50.00
2022-12-15T19:08:14.342Z,46.50
2022-12-15T19:10:48.920Z,47.50
2022-12-15T19:13:20.936Z,45.80
2022-12-15T19:15:52.488Z,45.80
2022-12-15T19:18:41.771Z,45.50
2022-12-15T19:21:33.331Z,47.80
2022-12-15T19:24:04.306Z,46.80
2022-12-15T19:26:35.229Z,42.50
2022-12-15T19:29:11.787Z,41.90
2022-12-15T19:31:42.321Z,40.90
2022-12-15T19:34:13.080Z,44.50
2022-12-15T19:36:43.752Z,41.30
2022-12-15T19:39:20.218Z,42.10
2022-12-15T19:41:51.162Z,44.60
2022-12-15T19:44:22.088Z,38.20
2022-12-15T19:46:52.523Z,41.10
2022-12-15T19:49:23.560Z,38.10
2022-12-15T19:51:54.594Z,36.00
2022-12-15T19:54:25.652Z,40.80
2022-12-15T19:56:56.479Z,39.60
2022-12-15T19:59:28.498Z,36.00
2022-12-15T20:01:59.328Z,34.80
2022-12-15T20:04:32.565Z,33.80
2022-12-15T20:07:04.273Z,39.30
2022-12-15T20:09:36.184Z,34.40
2022-12-15T20:12:07.240Z,37.10
2022-12-15T20:14:38.103Z,34.80
2022-12-15T20:17:08.540Z,36.10
2022-12-15T20:19:39.581Z,33.90
2022-12-15T20:22:13.060Z,32.10
2022-12-15T20:24:44.793Z,35.40
2022-12-15T20:27:16.744Z,32.70
2022-12-15T20:29:48.031Z,33.60
2022-12-15T20:32:19.760Z,35.50
2022-12-15T20:34:50.625Z,36.20
2022-12-15T20:37:22.539Z,38.00
2022-12-15T20:39:57.489Z,42.30
2022-12-15T20:42:29.829Z,39.90
2022-12-15T20:45:00.955Z,37.30
2022-12-15T20:47:31.507Z,36.20
2022-12-15T20:50:04.676Z,38.00
2022-12-15T20:55:07.601Z,35.20
2022-12-15T20:57:38.440Z,34.20
2022-12-15T21:00:13.409Z,34.80
2022-12-15T21:02:44.483Z,34.60
2022-12-15T21:05:20.025Z,36.40
2022-12-15T21:07:52.531Z,35.70
2022-12-15T21:10:23.665Z,34.80
2022-12-15T21:12:55.970Z,32.70
2022-12-15T21:15:26.930Z,31.90
2022-12-15T21:18:20.009Z,35.20
2022-12-15T21:20:49.788Z,30.80
2022-12-15T21:23:24.149Z,33.50
2022-12-15T21:25:57.454Z,36.50
2022-12-15T21:28:28.444Z,35.10
2022-12-15T21:30:59.587Z,31.70
2022-12-15T21:33:30.481Z,32.00
2022-12-15T21:36:01.821Z,37.20
2022-12-15T21:38:34.710Z,33.00
2022-12-15T21:41:07.384Z,35.50
2022-12-15T21:43:38.020Z,35.90
2022-12-15T21:46:15.095Z,33.70
2022-12-15T21:49:03.613Z,36.20
2022-12-15T21:51:35.713Z,32.80
2022-12-15T21:54:07.368Z,35.30
2022-12-15T21:56:38.165Z,30.20
2022-12-15T21:59:12.740Z,29.70
2022-12-15T22:01:43.897Z,32.60
2022-12-15T22:04:19.353Z,32.80
2022-12-15T22:06:50.950Z,32.80
2022-12-15T22:09:21.886Z,33.50
2022-12-15T22:11:54.821Z,29.40
2022-12-15T22:14:27.065Z,28.10
2022-12-15T22:16:58.038Z,29.50
2022-12-15T22:19:29.037Z,33.10
2022-12-15T22:21:59.946Z,30.90
2022-12-15T22:24:30.502Z,29.30
2022-12-15T22:27:01.380Z,30.70
2022-12-15T22:29:32.038Z,33.50
2022-12-15T22:32:03.211Z,35.20
2022-12-15T22:34:33.844Z,33.20
2022-12-15T22:37:04.735Z,36.00
2022-12-15T22:39:35.442Z,34.40
2022-12-15T22:42:07.042Z,33.70
2022-12-15T22:44:38.422Z,34.30
2022-12-15T22:47:11.810Z,37.60
2022-12-15T22:52:16.581Z,35.20
2022-12-15T22:54:47.936Z,33.80
2022-12-15T22:57:21.661Z,32.50
2022-12-15T22:59:53.550Z,38.70
2022-12-15T23:02:25.364Z,37.20
2022-12-15T23:04:56.974Z,36.70
2022-12-15T23:07:27.938Z,35.90
2022-12-15T23:10:14.472Z,38.40
2022-12-15T23:12:57.866Z,34.30
2022-12-15T23:16:15.154Z,39.40
2022-12-15T23:19:00.803Z,36.90
2022-12-15T23:21:32.979Z,35.90
2022-12-15T23:24:03.650Z,35.10
2022-12-15T23:26:34.519Z,37.70
2022-12-15T23:29:05.323Z,34.60
2022-12-15T23:31:36.674Z,37.80
2022-12-15T23:34:07.331Z,37.10
2022-12-15T23:36:38.459Z,35.10
2022-12-15T23:39:09.084Z,31.90
2022-12-15T23:41:40.115Z,36.50
2022-12-15T23:44:12.588Z,37.60
2022-12-15T23:46:43.284Z,36.90
2022-12-15T23:49:14.197Z,36.10
2022-12-15T23:51:44.839Z,36.20
2022-12-15T23:54:15.903Z,33.30
2022-12-15T23:56:46.915Z,33.50
2022-12-15T23:59:17.661Z,38.30
